sensor_id;sensor_type;location;lat;lon;timestamp;pressure;altitude;pressure_sealevel;temperature;humidity
69153;BME280;56261;51.580;4.578;2023-07-30T00:01:30;101074.94;;;15.77;100.00
69153;BME280;56261;51.580;4.578;2023-07-30T00:03:56;101078.41;;;15.71;100.00
69153;BME280;56261;51.580;4.578;2023-07-30T00:06:21;101087.47;;;15.70;100.00
69153;BME280;56261;51.580;4.578;2023-07-30T00:08:46;101078.25;;;15.79;100.00
69153;BME280;56261;51.580;4.578;2023-07-30T00:11:12;101082.47;;;15.67;100.00
69153;BME280;56261;51.580;4.578;2023-07-30T00:13:37;101079.59;;;15.68;100.00
69153;BME280;56261;51.580;4.578;2023-07-30T00:16:03;101072.72;;;15.59;100.00
69153;BME280;56261;51.580;4.578;2023-07-30T00:18:28;101081.38;;;15.54;100.00
69153;BME280;56261;51.580;4.578;2023-07-30T00:20:53;101075.19;;;15.54;100.00
69153;BME280;56261;51.580;4.578;2023-07-30T00:23:19;101075.59;;;15.57;100.00
69153;BME280;56261;51.580;4.578;2023-07-30T00:25:44;101079.69;;;15.53;100.00
69153;BME280;56261;51.580;4.578;2023-07-30T00:28:10;101075.75;;;15.49;100.00
69153;BME280;56261;51.580;4.578;2023-07-30T00:30:35;101084.84;;;15.48;100.00
69153;BME280;56261;51.580;4.578;2023-07-30T00:33:00;101085.88;;;15.47;100.00
69153;BME280;56261;51.580;4.578;2023-07-30T00:35:26;101080.50;;;15.47;100.00
69153;BME280;56261;51.580;4.578;2023-07-30T00:37:51;101079.47;;;15.48;100.00
69153;BME280;56261;51.580;4.578;2023-07-30T00:40:17;101088.56;;;15.47;100.00
69153;BME280;56261;51.580;4.578;2023-07-30T00:42:43;101095.56;;;15.42;100.00
69153;BME280;56261;51.580;4.578;2023-07-30T00:45:09;101091.25;;;15.47;100.00
69153;BME280;56261;51.580;4.578;2023-07-30T00:47:35;101096.63;;;15.47;100.00
69153;BME280;56261;51.580;4.578;2023-07-30T00:50:01;101085.47;;;15.50;100.00
69153;BME280;56261;51.580;4.578;2023-07-30T00:52:27;101094.38;;;15.51;100.00
69153;BME280;56261;51.580;4.578;2023-07-30T00:54:54;101090.44;;;15.53;100.00
69153;BME280;56261;51.580;4.578;2023-07-30T00:57:20;101092.56;;;15.58;100.00
69153;BME280;56261;51.580;4.578;2023-07-30T00:59:47;101096.41;;;15.49;100.00
69153;BME280;56261;51.580;4.578;2023-07-30T01:02:13;101095.84;;;15.53;100.00
69153;BME280;56261;51.580;4.578;2023-07-30T01:04:40;101109.53;;;15.59;100.00
69153;BME280;56261;51.580;4.578;2023-07-30T01:07:06;101106.22;;;15.56;100.00
69153;BME280;56261;51.580;4.578;2023-07-30T01:09:32;101102.88;;;15.54;100.00
69153;BME280;56261;51.580;4.578;2023-07-30T01:12:00;101102.66;;;15.56;100.00
69153;BME280;56261;51.580;4.578;2023-07-30T01:14:25;101113.69;;;15.61;100.00
69153;BME280;56261;51.580;4.578;2023-07-30T01:16:52;101112.69;;;15.69;100.00
69153;BME280;56261;51.580;4.578;2023-07-30T01:19:18;101123.75;;;15.74;100.00
69153;BME280;56261;51.580;4.578;2023-07-30T01:21:43;101115.47;;;15.75;100.00
69153;BME280;56261;51.580;4.578;2023-07-30T01:24:08;101117.19;;;15.83;100.00
69153;BME280;56261;51.580;4.578;2023-07-30T01:26:55;101113.00;;;15.81;100.00
69153;BME280;56261;51.580;4.578;2023-07-30T01:29:36;101108.84;;;15.78;100.00
69153;BME280;56261;51.580;4.578;2023-07-30T01:32:07;101120.09;;;15.88;100.00
69153;BME280;56261;51.580;4.578;2023-07-30T01:34:35;101121.06;;;15.74;100.00
69153;BME280;56261;51.580;4.578;2023-07-30T01:37:02;101117.00;;;15.91;100.00
69153;BME280;56261;51.580;4.578;2023-07-30T01:39:28;101111.63;;;15.91;100.00
69153;BME280;56261;51.580;4.578;2023-07-30T01:41:55;101110.19;;;15.95;100.00
69153;BME280;56261;51.580;4.578;2023-07-30T01:44:20;101115.81;;;16.01;100.00
69153;BME280;56261;51.580;4.578;2023-07-30T01:46:46;101114.16;;;16.00;100.00
69153;BME280;56261;51.580;4.578;2023-07-30T01:49:11;101118.47;;;15.94;100.00
69153;BME280;56261;51.580;4.578;2023-07-30T01:51:36;101116.84;;;16.00;100.00
69153;BME280;56261;51.580;4.578;2023-07-30T01:54:02;101112.97;;;16.09;100.00
69153;BME280;56261;51.580;4.578;2023-07-30T01:56:27;101113.59;;;16.11;100.00
69153;BME280;56261;51.580;4.578;2023-07-30T01:58:53;101117.06;;;16.05;100.00
69153;BME280;56261;51.580;4.578;2023-07-30T02:01:18;101115.19;;;15.98;100.00
69153;BME280;56261;51.580;4.578;2023-07-30T02:03:43;101112.50;;;16.05;100.00
69153;BME280;56261;51.580;4.578;2023-07-30T02:06:12;101105.50;;;16.04;100.00
69153;BME280;56261;51.580;4.578;2023-07-30T02:08:38;101110.38;;;15.94;100.00
69153;BME280;56261;51.580;4.578;2023-07-30T02:11:03;101113.72;;;15.96;100.00
69153;BME280;56261;51.580;4.578;2023-07-30T02:13:28;101113.03;;;15.87;100.00
69153;BME280;56261;51.580;4.578;2023-07-30T02:15:54;101117.41;;;15.88;100.00
69153;BME280;56261;51.580;4.578;2023-07-30T02:18:19;101110.59;;;15.92;100.00
69153;BME280;56261;51.580;4.578;2023-07-30T02:20:45;101101.13;;;15.96;100.00
69153;BME280;56261;51.580;4.578;2023-07-30T02:23:10;101105.78;;;15.81;100.00
69153;BME280;56261;51.580;4.578;2023-07-30T02:25:37;101114.81;;;15.73;100.00
69153;BME280;56261;51.580;4.578;2023-07-30T02:28:03;101106.41;;;15.83;100.00
69153;BME280;56261;51.580;4.578;2023-07-30T02:30:28;101107.84;;;15.79;100.00
69153;BME280;56261;51.580;4.578;2023-07-30T02:32:53;101109.81;;;15.70;100.00
69153;BME280;56261;51.580;4.578;2023-07-30T02:35:19;101116.13;;;15.84;100.00
69153;BME280;56261;51.580;4.578;2023-07-30T02:37:47;101103.78;;;15.90;100.00
69153;BME280;56261;51.580;4.578;2023-07-30T02:40:13;101096.38;;;15.98;100.00
69153;BME280;56261;51.580;4.578;2023-07-30T02:42:39;101105.06;;;16.07;100.00
69153;BME280;56261;51.580;4.578;2023-07-30T02:45:04;101111.47;;;16.00;100.00
69153;BME280;56261;51.580;4.578;2023-07-30T02:47:30;101114.13;;;15.93;100.00
69153;BME280;56261;51.580;4.578;2023-07-30T02:49:55;101108.09;;;15.91;100.00
69153;BME280;56261;51.580;4.578;2023-07-30T02:52:21;101109.69;;;15.79;100.00
69153;BME280;56261;51.580;4.578;2023-07-30T02:54:46;101102.47;;;15.79;100.00
69153;BME280;56261;51.580;4.578;2023-07-30T02:57:12;101112.22;;;15.87;100.00
69153;BME280;56261;51.580;4.578;2023-07-30T02:59:38;101108.66;;;15.80;100.00
69153;BME280;56261;51.580;4.578;2023-07-30T03:02:04;101103.44;;;15.71;100.00
69153;BME280;56261;51.580;4.578;2023-07-30T03:04:32;101103.25;;;15.73;100.00
69153;BME280;56261;51.580;4.578;2023-07-30T03:06:58;101095.22;;;15.80;100.00
69153;BME280;56261;51.580;4.578;2023-07-30T03:09:24;101100.56;;;15.73;100.00
69153;BME280;56261;51.580;4.578;2023-07-30T03:11:50;101097.97;;;15.65;100.00
69153;BME280;56261;51.580;4.578;2023-07-30T03:14:15;101105.56;;;15.54;100.00
69153;BME280;56261;51.580;4.578;2023-07-30T03:16:40;101103.94;;;15.60;100.00
69153;BME280;56261;51.580;4.578;2023-07-30T03:19:06;101100.66;;;15.65;100.00
69153;BME280;56261;51.580;4.578;2023-07-30T03:21:31;101104.41;;;15.64;100.00
69153;BME280;56261;51.580;4.578;2023-07-30T03:23:57;101096.97;;;15.66;100.00
69153;BME280;56261;51.580;4.578;2023-07-30T03:26:22;101105.56;;;15.54;100.00
69153;BME280;56261;51.580;4.578;2023-07-30T03:28:47;101113.38;;;15.49;100.00
69153;BME280;56261;51.580;4.578;2023-07-30T03:31:13;101110.50;;;15.51;100.00
69153;BME280;56261;51.580;4.578;2023-07-30T03:33:40;101113.06;;;15.59;100.00
69153;BME280;56261;51.580;4.578;2023-07-30T03:36:10;101113.63;;;15.54;100.00
69153;BME280;56261;51.580;4.578;2023-07-30T03:38:35;101111.00;;;15.61;100.00
69153;BME280;56261;51.580;4.578;2023-07-30T03:41:00;101105.63;;;15.61;100.00
69153;BME280;56261;51.580;4.578;2023-07-30T03:43:26;101116.06;;;15.49;100.00
69153;BME280;56261;51.580;4.578;2023-07-30T03:45:51;101120.03;;;15.53;100.00
69153;BME280;56261;51.580;4.578;2023-07-30T03:48:16;101113.91;;;15.66;100.00
69153;BME280;56261;51.580;4.578;2023-07-30T03:50:42;101116.56;;;15.60;100.00
69153;BME280;56261;51.580;4.578;2023-07-30T03:53:07;101117.44;;;15.67;100.00
69153;BME280;56261;51.580;4.578;2023-07-30T03:55:33;101132.00;;;15.72;100.00
69153;BME280;56261;51.580;4.578;2023-07-30T03:57:58;101123.84;;;15.66;100.00
69153;BME280;56261;51.580;4.578;2023-07-30T04:00:23;101127.44;;;15.73;100.00
69153;BME280;56261;51.580;4.578;2023-07-30T04:02:49;101128.63;;;15.70;100.00
69153;BME280;56261;51.580;4.578;2023-07-30T04:05:14;101133.53;;;15.88;100.00
69153;BME280;56261;51.580;4.578;2023-07-30T04:07:40;101135.56;;;15.80;100.00
69153;BME280;56261;51.580;4.578;2023-07-30T04:10:05;101135.03;;;15.69;100.00
69153;BME280;56261;51.580;4.578;2023-07-30T04:12:31;101127.81;;;15.70;100.00
69153;BME280;56261;51.580;4.578;2023-07-30T04:14:56;101122.25;;;15.71;100.00
69153;BME280;56261;51.580;4.578;2023-07-30T04:17:22;101117.06;;;15.70;100.00
69153;BME280;56261;51.580;4.578;2023-07-30T04:19:47;101120.72;;;15.62;100.00
69153;BME280;56261;51.580;4.578;2023-07-30T04:22:12;101138.59;;;15.48;100.00
69153;BME280;56261;51.580;4.578;2023-07-30T04:24:38;101133.91;;;15.57;100.00
69153;BME280;56261;51.580;4.578;2023-07-30T04:27:03;101130.47;;;15.63;100.00
69153;BME280;56261;51.580;4.578;2023-07-30T04:29:29;101137.31;;;15.66;100.00
69153;BME280;56261;51.580;4.578;2023-07-30T04:31:54;101132.88;;;15.58;100.00
69153;BME280;56261;51.580;4.578;2023-07-30T04:34:20;101138.59;;;15.48;100.00
69153;BME280;56261;51.580;4.578;2023-07-30T04:36:45;101145.97;;;15.40;100.00
69153;BME280;56261;51.580;4.578;2023-07-30T04:39:11;101141.41;;;15.62;100.00
69153;BME280;56261;51.580;4.578;2023-07-30T04:41:37;101144.63;;;15.50;100.00
69153;BME280;56261;51.580;4.578;2023-07-30T04:44:03;101153.69;;;15.43;100.00
69153;BME280;56261;51.580;4.578;2023-07-30T04:46:28;101149.06;;;15.36;100.00
69153;BME280;56261;51.580;4.578;2023-07-30T04:48:55;101152.63;;;15.44;100.00
69153;BME280;56261;51.580;4.578;2023-07-30T04:51:20;101146.28;;;15.51;100.00
69153;BME280;56261;51.580;4.578;2023-07-30T04:53:45;101151.53;;;15.60;100.00
69153;BME280;56261;51.580;4.578;2023-07-30T04:56:11;101147.00;;;15.67;100.00
69153;BME280;56261;51.580;4.578;2023-07-30T04:58:36;101142.34;;;15.75;100.00
69153;BME280;56261;51.580;4.578;2023-07-30T05:01:02;101149.19;;;15.78;100.00
69153;BME280;56261;51.580;4.578;2023-07-30T05:03:27;101143.75;;;15.71;100.00
69153;BME280;56261;51.580;4.578;2023-07-30T05:05:53;101144.44;;;15.80;100.00
69153;BME280;56261;51.580;4.578;2023-07-30T05:08:19;101139.38;;;15.92;100.00
69153;BME280;56261;51.580;4.578;2023-07-30T05:10:44;101144.16;;;15.96;100.00
69153;BME280;56261;51.580;4.578;2023-07-30T05:13:09;101144.78;;;15.98;100.00
69153;BME280;56261;51.580;4.578;2023-07-30T05:15:35;101151.41;;;16.03;100.00
69153;BME280;56261;51.580;4.578;2023-07-30T05:18:02;101149.00;;;15.80;100.00
69153;BME280;56261;51.580;4.578;2023-07-30T05:20:27;101148.78;;;15.74;100.00
69153;BME280;56261;51.580;4.578;2023-07-30T05:22:52;101155.16;;;15.73;100.00
69153;BME280;56261;51.580;4.578;2023-07-30T05:25:18;101157.72;;;15.82;100.00
69153;BME280;56261;51.580;4.578;2023-07-30T05:27:43;101156.72;;;15.89;100.00
69153;BME280;56261;51.580;4.578;2023-07-30T05:30:09;101156.00;;;16.09;100.00
69153;BME280;56261;51.580;4.578;2023-07-30T05:32:34;101154.56;;;16.06;100.00
69153;BME280;56261;51.580;4.578;2023-07-30T05:35:00;101159.41;;;15.89;100.00
69153;BME280;56261;51.580;4.578;2023-07-30T05:37:25;101150.66;;;16.15;100.00
69153;BME280;56261;51.580;4.578;2023-07-30T05:39:50;101156.47;;;16.12;100.00
69153;BME280;56261;51.580;4.578;2023-07-30T05:42:16;101160.16;;;16.11;100.00
69153;BME280;56261;51.580;4.578;2023-07-30T05:44:41;101156.72;;;16.24;100.00
69153;BME280;56261;51.580;4.578;2023-07-30T05:47:06;101151.22;;;16.04;100.00
69153;BME280;56261;51.580;4.578;2023-07-30T05:49:32;101153.81;;;16.19;100.00
69153;BME280;56261;51.580;4.578;2023-07-30T05:51:57;101151.72;;;16.14;100.00
69153;BME280;56261;51.580;4.578;2023-07-30T05:54:22;101159.78;;;16.14;100.00
69153;BME280;56261;51.580;4.578;2023-07-30T05:56:48;101155.69;;;16.25;100.00
69153;BME280;56261;51.580;4.578;2023-07-30T05:59:13;101158.78;;;16.22;100.00
69153;BME280;56261;51.580;4.578;2023-07-30T06:01:39;101150.69;;;16.22;100.00
69153;BME280;56261;51.580;4.578;2023-07-30T06:04:05;101149.34;;;16.39;100.00
69153;BME280;56261;51.580;4.578;2023-07-30T06:06:30;101163.16;;;16.23;100.00
69153;BME280;56261;51.580;4.578;2023-07-30T06:08:56;101162.28;;;16.23;100.00
69153;BME280;56261;51.580;4.578;2023-07-30T06:11:22;101157.53;;;16.25;100.00
69153;BME280;56261;51.580;4.578;2023-07-30T06:13:47;101167.50;;;16.24;100.00
69153;BME280;56261;51.580;4.578;2023-07-30T06:16:13;101174.56;;;16.32;100.00
69153;BME280;56261;51.580;4.578;2023-07-30T06:18:39;101174.97;;;16.29;100.00
69153;BME280;56261;51.580;4.578;2023-07-30T06:21:04;101159.59;;;16.23;100.00
69153;BME280;56261;51.580;4.578;2023-07-30T06:23:30;101163.53;;;16.20;100.00
69153;BME280;56261;51.580;4.578;2023-07-30T06:25:55;101155.09;;;16.36;100.00
69153;BME280;56261;51.580;4.578;2023-07-30T06:28:21;101168.03;;;16.48;100.00
69153;BME280;56261;51.580;4.578;2023-07-30T06:30:46;101162.84;;;16.53;100.00
69153;BME280;56261;51.580;4.578;2023-07-30T06:33:12;101165.75;;;16.51;100.00
69153;BME280;56261;51.580;4.578;2023-07-30T06:35:37;101162.19;;;16.44;100.00
69153;BME280;56261;51.580;4.578;2023-07-30T06:38:03;101172.97;;;16.44;100.00
69153;BME280;56261;51.580;4.578;2023-07-30T06:40:28;101175.66;;;16.44;100.00
69153;BME280;56261;51.580;4.578;2023-07-30T06:42:53;101189.75;;;16.46;100.00
69153;BME280;56261;51.580;4.578;2023-07-30T06:45:19;101183.94;;;16.43;100.00
69153;BME280;56261;51.580;4.578;2023-07-30T06:47:44;101179.78;;;16.40;100.00
69153;BME280;56261;51.580;4.578;2023-07-30T06:50:10;101178.53;;;16.43;100.00
69153;BME280;56261;51.580;4.578;2023-07-30T06:52:35;101169.59;;;16.77;100.00
69153;BME280;56261;51.580;4.578;2023-07-30T06:55:02;101176.22;;;16.81;100.00
69153;BME280;56261;51.580;4.578;2023-07-30T06:57:29;101182.41;;;16.75;100.00
69153;BME280;56261;51.580;4.578;2023-07-30T06:59:54;101181.94;;;16.58;100.00
69153;BME280;56261;51.580;4.578;2023-07-30T07:02:20;101178.81;;;16.54;100.00
69153;BME280;56261;51.580;4.578;2023-07-30T07:04:45;101175.69;;;16.51;100.00
69153;BME280;56261;51.580;4.578;2023-07-30T07:07:10;101171.81;;;16.67;100.00
69153;BME280;56261;51.580;4.578;2023-07-30T07:09:36;101176.38;;;16.66;100.00
69153;BME280;56261;51.580;4.578;2023-07-30T07:12:01;101166.09;;;16.90;100.00
69153;BME280;56261;51.580;4.578;2023-07-30T07:14:28;101169.09;;;17.28;100.00
69153;BME280;56261;51.580;4.578;2023-07-30T07:16:54;101177.19;;;17.28;100.00
69153;BME280;56261;51.580;4.578;2023-07-30T07:19:21;101177.78;;;17.10;100.00
69153;BME280;56261;51.580;4.578;2023-07-30T07:21:46;101185.41;;;17.00;100.00
69153;BME280;56261;51.580;4.578;2023-07-30T07:24:12;101187.34;;;17.26;100.00
69153;BME280;56261;51.580;4.578;2023-07-30T07:26:37;101191.91;;;17.46;100.00
69153;BME280;56261;51.580;4.578;2023-07-30T07:29:03;101182.97;;;17.32;100.00
69153;BME280;56261;51.580;4.578;2023-07-30T07:31:28;101191.28;;;17.24;100.00
69153;BME280;56261;51.580;4.578;2023-07-30T07:33:54;101192.31;;;17.22;100.00
69153;BME280;56261;51.580;4.578;2023-07-30T07:36:19;101196.97;;;16.87;100.00
69153;BME280;56261;51.580;4.578;2023-07-30T07:38:44;101193.47;;;16.87;100.00
69153;BME280;56261;51.580;4.578;2023-07-30T07:41:14;101204.50;;;17.12;100.00
69153;BME280;56261;51.580;4.578;2023-07-30T07:43:41;101201.16;;;16.96;100.00
69153;BME280;56261;51.580;4.578;2023-07-30T07:46:07;101204.13;;;17.15;100.00
69153;BME280;56261;51.580;4.578;2023-07-30T07:48:41;101204.97;;;17.29;100.00
69153;BME280;56261;51.580;4.578;2023-07-30T07:51:08;101198.97;;;17.53;100.00
69153;BME280;56261;51.580;4.578;2023-07-30T07:53:34;101204.38;;;17.73;100.00
69153;BME280;56261;51.580;4.578;2023-07-30T07:56:00;101199.38;;;17.70;100.00
69153;BME280;56261;51.580;4.578;2023-07-30T07:58:25;101202.50;;;17.74;100.00
69153;BME280;56261;51.580;4.578;2023-07-30T08:00:54;101211.41;;;17.48;100.00
69153;BME280;56261;51.580;4.578;2023-07-30T08:03:20;101203.75;;;17.78;100.00
69153;BME280;56261;51.580;4.578;2023-07-30T08:05:45;101203.94;;;17.43;100.00
69153;BME280;56261;51.580;4.578;2023-07-30T08:08:11;101209.97;;;17.58;100.00
69153;BME280;56261;51.580;4.578;2023-07-30T08:10:40;101200.44;;;17.56;100.00
69153;BME280;56261;51.580;4.578;2023-07-30T08:13:09;101214.31;;;17.46;100.00
69153;BME280;56261;51.580;4.578;2023-07-30T08:15:35;101215.75;;;17.35;100.00
69153;BME280;56261;51.580;4.578;2023-07-30T08:18:00;101211.03;;;17.64;100.00
69153;BME280;56261;51.580;4.578;2023-07-30T08:20:25;101213.13;;;17.82;100.00
69153;BME280;56261;51.580;4.578;2023-07-30T08:22:51;101218.69;;;17.74;100.00
69153;BME280;56261;51.580;4.578;2023-07-30T08:25:16;101207.09;;;17.87;100.00
69153;BME280;56261;51.580;4.578;2023-07-30T08:27:42;101204.78;;;17.83;100.00
69153;BME280;56261;51.580;4.578;2023-07-30T08:30:08;101190.63;;;18.21;100.00
69153;BME280;56261;51.580;4.578;2023-07-30T08:32:33;101198.31;;;18.24;100.00
69153;BME280;56261;51.580;4.578;2023-07-30T08:34:59;101211.22;;;18.02;100.00
69153;BME280;56261;51.580;4.578;2023-07-30T08:37:25;101202.31;;;17.75;100.00
69153;BME280;56261;51.580;4.578;2023-07-30T08:39:52;101189.44;;;17.64;100.00
69153;BME280;56261;51.580;4.578;2023-07-30T08:42:17;101198.75;;;17.68;100.00
69153;BME280;56261;51.580;4.578;2023-07-30T08:44:43;101199.59;;;17.55;100.00
69153;BME280;56261;51.580;4.578;2023-07-30T08:47:08;101215.13;;;17.27;100.00
69153;BME280;56261;51.580;4.578;2023-07-30T08:49:34;101210.09;;;17.04;100.00
69153;BME280;56261;51.580;4.578;2023-07-30T08:52:01;101225.34;;;16.83;100.00
69153;BME280;56261;51.580;4.578;2023-07-30T08:54:30;101227.34;;;16.68;100.00
69153;BME280;56261;51.580;4.578;2023-07-30T08:56:55;101239.16;;;16.32;100.00
69153;BME280;56261;51.580;4.578;2023-07-30T08:59:22;101259.13;;;16.16;100.00
69153;BME280;56261;51.580;4.578;2023-07-30T09:01:51;101258.09;;;16.10;100.00
69153;BME280;56261;51.580;4.578;2023-07-30T09:04:18;101259.78;;;15.90;100.00
69153;BME280;56261;51.580;4.578;2023-07-30T09:06:43;101251.25;;;16.08;100.00
69153;BME280;56261;51.580;4.578;2023-07-30T09:09:13;101272.19;;;15.91;100.00
69153;BME280;56261;51.580;4.578;2023-07-30T09:11:38;101268.81;;;15.82;100.00
69153;BME280;56261;51.580;4.578;2023-07-30T09:14:05;101261.38;;;15.84;100.00
69153;BME280;56261;51.580;4.578;2023-07-30T09:16:31;101260.63;;;15.90;100.00
69153;BME280;56261;51.580;4.578;2023-07-30T09:18:57;101269.28;;;15.86;100.00
69153;BME280;56261;51.580;4.578;2023-07-30T09:21:33;101260.44;;;15.92;100.00
69153;BME280;56261;51.580;4.578;2023-07-30T09:24:02;101261.31;;;15.77;100.00
69153;BME280;56261;51.580;4.578;2023-07-30T09:26:39;101262.09;;;15.71;100.00
69153;BME280;56261;51.580;4.578;2023-07-30T09:29:10;101271.56;;;15.67;100.00
69153;BME280;56261;51.580;4.578;2023-07-30T09:31:49;101278.16;;;15.86;100.00
69153;BME280;56261;51.580;4.578;2023-07-30T09:34:17;101276.53;;;15.85;100.00
69153;BME280;56261;51.580;4.578;2023-07-30T09:36:44;101267.00;;;15.89;100.00
69153;BME280;56261;51.580;4.578;2023-07-30T09:39:23;101282.19;;;15.97;100.00
69153;BME280;56261;51.580;4.578;2023-07-30T09:42:01;101284.78;;;16.12;100.00
69153;BME280;56261;51.580;4.578;2023-07-30T09:44:27;101280.44;;;16.11;100.00
69153;BME280;56261;51.580;4.578;2023-07-30T09:46:52;101282.31;;;16.10;100.00
69153;BME280;56261;51.580;4.578;2023-07-30T09:49:18;101280.03;;;16.42;100.00
69153;BME280;56261;51.580;4.578;2023-07-30T09:51:44;101276.81;;;16.60;100.00
69153;BME280;56261;51.580;4.578;2023-07-30T09:54:13;101283.19;;;17.35;100.00
69153;BME280;56261;51.580;4.578;2023-07-30T09:56:40;101269.53;;;17.70;100.00
69153;BME280;56261;51.580;4.578;2023-07-30T09:59:07;101269.84;;;18.74;100.00
69153;BME280;56261;51.580;4.578;2023-07-30T10:01:38;101253.66;;;18.67;100.00
69153;BME280;56261;51.580;4.578;2023-07-30T10:04:08;101253.97;;;18.97;100.00
69153;BME280;56261;51.580;4.578;2023-07-30T10:06:42;101251.19;;;19.11;100.00
69153;BME280;56261;51.580;4.578;2023-07-30T10:09:11;101260.59;;;19.01;100.00
69153;BME280;56261;51.580;4.578;2023-07-30T10:11:38;101256.56;;;19.17;100.00
69153;BME280;56261;51.580;4.578;2023-07-30T10:14:05;101250.31;;;19.23;100.00
69153;BME280;56261;51.580;4.578;2023-07-30T10:16:30;101251.47;;;19.02;100.00
69153;BME280;56261;51.580;4.578;2023-07-30T10:18:57;101246.94;;;19.60;100.00
69153;BME280;56261;51.580;4.578;2023-07-30T10:21:25;101256.78;;;19.54;100.00
69153;BME280;56261;51.580;4.578;2023-07-30T10:26:29;101259.53;;;19.09;100.00
69153;BME280;56261;51.580;4.578;2023-07-30T10:29:15;101261.41;;;20.04;100.00
69153;BME280;56261;51.580;4.578;2023-07-30T10:31:41;101256.69;;;20.18;100.00
69153;BME280;56261;51.580;4.578;2023-07-30T10:34:09;101264.38;;;20.21;100.00
69153;BME280;56261;51.580;4.578;2023-07-30T10:36:46;101252.78;;;19.88;100.00
69153;BME280;56261;51.580;4.578;2023-07-30T10:39:16;101267.44;;;19.81;100.00
69153;BME280;56261;51.580;4.578;2023-07-30T10:41:45;101261.59;;;20.02;100.00
69153;BME280;56261;51.580;4.578;2023-07-30T10:44:38;101265.47;;;20.13;100.00
69153;BME280;56261;51.580;4.578;2023-07-30T10:47:08;101270.75;;;20.26;100.00
69153;BME280;56261;51.580;4.578;2023-07-30T10:49:37;101263.09;;;20.23;100.00
69153;BME280;56261;51.580;4.578;2023-07-30T10:52:03;101279.69;;;20.08;100.00
69153;BME280;56261;51.580;4.578;2023-07-30T10:54:36;101272.22;;;20.04;100.00
69153;BME280;56261;51.580;4.578;2023-07-30T10:57:05;101269.06;;;20.07;100.00
69153;BME280;56261;51.580;4.578;2023-07-30T10:59:35;101266.00;;;20.03;100.00
69153;BME280;56261;51.580;4.578;2023-07-30T11:02:02;101273.22;;;19.53;100.00
69153;BME280;56261;51.580;4.578;2023-07-30T11:04:27;101263.34;;;19.33;100.00
69153;BME280;56261;51.580;4.578;2023-07-30T11:06:52;101278.41;;;19.86;100.00
69153;BME280;56261;51.580;4.578;2023-07-30T11:11:45;101273.41;;;20.33;100.00
69153;BME280;56261;51.580;4.578;2023-07-30T11:14:15;101266.03;;;20.65;100.00
69153;BME280;56261;51.580;4.578;2023-07-30T11:16:53;101277.81;;;20.71;100.00
69153;BME280;56261;51.580;4.578;2023-07-30T11:19:19;101283.22;;;20.09;100.00
69153;BME280;56261;51.580;4.578;2023-07-30T11:21:49;101288.56;;;20.16;100.00
69153;BME280;56261;51.580;4.578;2023-07-30T11:24:14;101292.22;;;19.78;100.00
69153;BME280;56261;51.580;4.578;2023-07-30T11:26:40;101302.06;;;19.65;100.00
69153;BME280;56261;51.580;4.578;2023-07-30T11:29:16;101287.16;;;19.88;100.00
69153;BME280;56261;51.580;4.578;2023-07-30T11:31:43;101292.00;;;19.79;100.00
69153;BME280;56261;51.580;4.578;2023-07-30T11:34:09;101284.59;;;19.61;100.00
69153;BME280;56261;51.580;4.578;2023-07-30T11:36:34;101292.69;;;20.43;100.00
69153;BME280;56261;51.580;4.578;2023-07-30T11:39:00;101296.03;;;20.82;100.00
69153;BME280;56261;51.580;4.578;2023-07-30T11:41:27;101304.69;;;20.29;100.00
69153;BME280;56261;51.580;4.578;2023-07-30T11:43:54;101301.19;;;20.72;100.00
69153;BME280;56261;51.580;4.578;2023-07-30T11:46:19;101297.00;;;21.06;100.00
69153;BME280;56261;51.580;4.578;2023-07-30T11:48:48;101321.56;;;21.11;100.00
69153;BME280;56261;51.580;4.578;2023-07-30T11:51:28;101310.19;;;21.03;100.00
69153;BME280;56261;51.580;4.578;2023-07-30T11:53:56;101305.44;;;20.98;100.00
69153;BME280;56261;51.580;4.578;2023-07-30T11:56:23;101296.75;;;21.26;100.00
69153;BME280;56261;51.580;4.578;2023-07-30T11:58:53;101303.13;;;21.32;100.00
69153;BME280;56261;51.580;4.578;2023-07-30T12:01:19;101307.50;;;21.33;100.00
69153;BME280;56261;51.580;4.578;2023-07-30T12:03:45;101299.91;;;21.42;100.00
69153;BME280;56261;51.580;4.578;2023-07-30T12:06:11;101308.41;;;21.27;100.00
69153;BME280;56261;51.580;4.578;2023-07-30T12:08:37;101298.06;;;21.35;100.00
69153;BME280;56261;51.580;4.578;2023-07-30T12:11:07;101308.56;;;21.50;100.00
69153;BME280;56261;51.580;4.578;2023-07-30T12:13:33;101296.75;;;21.56;100.00
69153;BME280;56261;51.580;4.578;2023-07-30T12:15:59;101307.16;;;21.11;100.00
69153;BME280;56261;51.580;4.578;2023-07-30T12:18:26;101313.22;;;20.94;100.00
69153;BME280;56261;51.580;4.578;2023-07-30T12:20:53;101306.09;;;21.30;100.00
69153;BME280;56261;51.580;4.578;2023-07-30T12:23:22;101304.31;;;21.36;100.00
69153;BME280;56261;51.580;4.578;2023-07-30T12:25:47;101309.31;;;21.21;100.00
69153;BME280;56261;51.580;4.578;2023-07-30T12:28:13;101310.94;;;21.40;100.00
69153;BME280;56261;51.580;4.578;2023-07-30T12:30:39;101303.34;;;21.49;100.00
69153;BME280;56261;51.580;4.578;2023-07-30T12:33:04;101303.06;;;21.81;100.00
69153;BME280;56261;51.580;4.578;2023-07-30T12:35:31;101315.28;;;21.48;100.00
69153;BME280;56261;51.580;4.578;2023-07-30T12:37:57;101330.13;;;21.87;100.00
69153;BME280;56261;51.580;4.578;2023-07-30T12:40:23;101319.56;;;21.19;100.00
69153;BME280;56261;51.580;4.578;2023-07-30T12:42:48;101330.41;;;20.88;100.00